createdAt,value
2023-02-11T00:01:10.281Z,61.00
2023-02-11T00:03:39.008Z,61.26
2023-02-11T00:06:10.922Z,61.22
2023-02-11T00:08:39.514Z,60.53
2023-02-11T00:11:07.986Z,60.30
2023-02-11T00:13:35.958Z,60.64
2023-02-11T00:16:08.330Z,60.89
2023-02-11T00:18:36.704Z,60.53
2023-02-11T00:21:12.247Z,60.63
2023-02-11T00:23:40.348Z,60.58
2023-02-11T00:26:15.281Z,60.86
2023-02-11T00:28:43.643Z,61.23
2023-02-11T00:31:12.206Z,61.22
2023-02-11T00:33:40.219Z,60.55
2023-02-11T00:36:10.419Z,60.78
2023-02-11T00:38:39.108Z,61.31
2023-02-11T00:41:07.377Z,61.07
2023-02-11T00:43:35.856Z,61.33
2023-02-11T00:46:03.930Z,61.22
2023-02-11T00:48:32.295Z,60.62
2023-02-11T00:51:01.907Z,60.49
2023-02-11T00:53:30.254Z,60.45
2023-02-11T00:55:58.147Z,60.38
2023-02-11T00:58:27.455Z,59.77
2023-02-11T01:00:56.038Z,59.45
2023-02-11T01:03:25.459Z,59.47
2023-02-11T01:05:53.511Z,59.69
2023-02-11T01:08:21.802Z,60.10
2023-02-11T01:11:00.617Z,60.69
2023-02-11T01:13:29.815Z,60.71
2023-02-11T01:15:57.876Z,60.75
2023-02-11T01:18:26.078Z,61.08
2023-02-11T01:20:54.189Z,61.18
2023-02-11T01:23:22.509Z,61.50
2023-02-11T01:25:51.140Z,61.46
2023-02-11T01:28:21.113Z,61.70
2023-02-11T01:30:49.245Z,61.54
2023-02-11T01:33:17.462Z,61.65
2023-02-11T01:35:46.045Z,61.57
2023-02-11T01:38:18.823Z,61.79
2023-02-11T01:40:54.418Z,61.88
2023-02-11T01:43:23.606Z,61.64
2023-02-11T01:46:18.806Z,61.56
2023-02-11T01:48:50.110Z,61.49
2023-02-11T01:51:36.730Z,61.25
2023-02-11T01:54:24.064Z,61.38
2023-02-11T01:57:14.142Z,61.69
2023-02-11T01:59:46.921Z,61.07
2023-02-11T02:02:16.850Z,60.59
2023-02-11T02:04:50.440Z,60.40
2023-02-11T02:07:23.102Z,60.63
2023-02-11T02:09:56.316Z,60.50
2023-02-11T02:12:24.393Z,60.83
2023-02-11T02:14:52.350Z,60.83
2023-02-11T02:17:32.299Z,61.29
2023-02-11T02:20:32.114Z,61.19
2023-02-11T02:23:21.085Z,61.23
2023-02-11T02:25:52.003Z,61.63
2023-02-11T02:28:52.551Z,61.26
2023-02-11T02:31:20.433Z,60.73
2023-02-11T02:34:06.918Z,60.81
2023-02-11T02:36:39.594Z,60.18
2023-02-11T02:39:18.418Z,60.27
2023-02-11T02:41:47.319Z,60.71
2023-02-11T02:44:15.386Z,60.66
2023-02-11T02:46:43.439Z,60.66
2023-02-11T02:49:15.625Z,60.58
2023-02-11T02:51:46.783Z,60.55
2023-02-11T02:54:23.546Z,60.39
2023-02-11T02:56:54.595Z,60.44
2023-02-11T02:59:29.114Z,60.91
2023-02-11T03:02:00.155Z,61.24
2023-02-11T03:04:37.862Z,61.17
2023-02-11T03:07:21.186Z,61.23
2023-02-11T03:09:58.880Z,61.38
2023-02-11T03:12:29.728Z,61.40
2023-02-11T03:14:58.606Z,60.89
2023-02-11T03:17:28.230Z,60.69
2023-02-11T03:19:57.501Z,60.53
2023-02-11T03:22:27.644Z,60.52
2023-02-11T03:24:56.331Z,60.86
2023-02-11T03:27:39.250Z,61.27
2023-02-11T03:30:07.411Z,61.61
2023-02-11T03:32:47.563Z,61.89
2023-02-11T03:35:15.445Z,61.82
2023-02-11T03:37:52.379Z,62.09
2023-02-11T03:40:22.844Z,62.09
2023-02-11T03:42:57.378Z,62.16
2023-02-11T03:45:26.318Z,61.74
2023-02-11T03:48:02.120Z,61.27
2023-02-11T03:50:31.886Z,61.25
2023-02-11T03:53:02.051Z,61.38
2023-02-11T03:55:30.829Z,61.68
2023-02-11T03:57:58.834Z,61.68
2023-02-11T04:00:30.996Z,61.88
2023-02-11T04:02:59.047Z,61.92
2023-02-11T04:05:27.311Z,62.17
2023-02-11T04:07:55.390Z,62.20
2023-02-11T04:10:23.576Z,62.24
2023-02-11T04:12:51.403Z,62.57
2023-02-11T04:15:19.917Z,62.37
2023-02-11T04:17:47.774Z,62.30
2023-02-11T04:20:15.954Z,62.07
2023-02-11T04:22:44.017Z,61.82
2023-02-11T04:25:11.862Z,61.55
2023-02-11T04:27:39.771Z,61.12
2023-02-11T04:30:08.236Z,60.80
2023-02-11T04:32:36.074Z,60.62
2023-02-11T04:35:04.386Z,60.54
2023-02-11T04:37:32.356Z,60.49
2023-02-11T04:40:00.246Z,60.91
2023-02-11T04:42:28.184Z,60.25
2023-02-11T04:44:56.057Z,60.22
2023-02-11T04:47:24.095Z,60.45
2023-02-11T04:49:52.090Z,60.01
2023-02-11T04:52:20.079Z,60.13
2023-02-11T04:54:48.132Z,60.11
2023-02-11T04:57:16.251Z,60.30
2023-02-11T04:59:44.489Z,60.32
2023-02-11T05:02:12.279Z,60.48
2023-02-11T05:04:40.226Z,60.45
2023-02-11T05:07:08.184Z,60.59
2023-02-11T05:09:36.255Z,60.46
2023-02-11T05:12:04.542Z,60.18
2023-02-11T05:14:33.541Z,60.08
2023-02-11T05:17:01.526Z,60.04
2023-02-11T05:19:29.474Z,60.33
2023-02-11T05:22:02.990Z,59.72
2023-02-11T05:24:32.274Z,60.04
2023-02-11T05:27:00.861Z,60.26
2023-02-11T05:29:29.024Z,60.50
2023-02-11T05:31:58.430Z,60.83
2023-02-11T05:34:26.290Z,61.04
2023-02-11T05:36:54.408Z,61.55
2023-02-11T05:39:22.231Z,61.72
2023-02-11T05:41:50.310Z,61.69
2023-02-11T05:44:18.150Z,61.73
2023-02-11T05:46:46.286Z,61.76
2023-02-11T05:49:14.418Z,61.63
2023-02-11T05:51:42.384Z,61.79
2023-02-11T05:54:10.878Z,61.40
2023-02-11T05:56:38.836Z,60.97
2023-02-11T05:59:06.701Z,60.55
2023-02-11T06:01:34.669Z,60.18
2023-02-11T06:04:02.813Z,60.10
2023-02-11T06:06:30.852Z,60.44
2023-02-11T06:08:58.781Z,61.12
2023-02-11T06:11:26.769Z,60.99
2023-02-11T06:13:54.727Z,61.21
2023-02-11T06:16:22.763Z,61.48
2023-02-11T06:18:50.762Z,61.21
2023-02-11T06:21:18.650Z,60.82
2023-02-11T06:23:46.516Z,60.18
2023-02-11T06:26:23.577Z,60.18
2023-02-11T06:28:51.426Z,59.79
2023-02-11T06:31:19.484Z,59.34
2023-02-11T06:33:47.495Z,58.77
2023-02-11T06:36:16.688Z,58.70
2023-02-11T06:38:45.267Z,58.72
2023-02-11T06:41:14.774Z,58.88
2023-02-11T06:43:43.152Z,58.93
2023-02-11T06:46:11.398Z,58.98
2023-02-11T06:48:39.607Z,58.56
2023-02-11T06:51:13.221Z,58.40
2023-02-11T06:53:43.126Z,58.26
2023-02-11T06:56:15.600Z,57.70
2023-02-11T06:58:43.675Z,57.73
2023-02-11T07:01:13.680Z,57.55
2023-02-11T07:03:43.314Z,57.62
2023-02-11T07:06:12.807Z,57.35
2023-02-11T07:08:42.721Z,57.13
2023-02-11T07:11:19.385Z,57.08
2023-02-11T07:13:48.086Z,57.23
2023-02-11T07:16:17.572Z,56.54
2023-02-11T07:18:46.259Z,56.35
2023-02-11T07:21:15.154Z,56.16
2023-02-11T07:23:43.126Z,55.95
2023-02-11T07:26:12.115Z,55.41
2023-02-11T07:28:41.196Z,55.10
2023-02-11T07:31:13.853Z,54.48
2023-02-11T07:33:42.265Z,54.87
2023-02-11T07:36:10.801Z,56.10
2023-02-11T07:38:39.337Z,59.26
2023-02-11T07:41:09.452Z,56.64
2023-02-11T07:43:38.384Z,54.11
2023-02-11T07:46:07.848Z,53.76
2023-02-11T07:48:35.926Z,54.69
2023-02-11T07:51:06.654Z,54.85
2023-02-11T07:53:34.622Z,54.61
2023-02-11T07:56:03.512Z,54.29
2023-02-11T07:58:31.588Z,53.76
2023-02-11T08:01:03.731Z,53.32
2023-02-11T08:03:32.230Z,54.16
2023-02-11T08:06:04.095Z,53.08
2023-02-11T08:08:32.572Z,52.31
2023-02-11T08:11:05.665Z,52.32
2023-02-11T08:13:33.836Z,51.49
2023-02-11T08:16:01.953Z,51.62
2023-02-11T08:18:30.490Z,51.61
2023-02-11T08:21:04.110Z,51.25
2023-02-11T08:23:32.062Z,51.10
2023-02-11T08:26:04.329Z,50.73
2023-02-11T08:28:32.411Z,50.34
2023-02-11T08:31:04.745Z,49.77
2023-02-11T08:33:33.200Z,49.74
2023-02-11T08:36:02.047Z,49.90
2023-02-11T08:38:29.911Z,49.81
2023-02-11T08:40:59.717Z,48.93
2023-02-11T08:43:27.701Z,47.90
2023-02-11T08:45:55.691Z,46.82
2023-02-11T08:48:23.832Z,45.88
2023-02-11T08:50:52.004Z,44.92
2023-02-11T08:53:19.970Z,44.15
2023-02-11T08:55:51.430Z,42.84
2023-02-11T08:58:20.325Z,42.01
2023-02-11T09:00:49.557Z,41.41
2023-02-11T09:03:17.913Z,40.50
2023-02-11T09:05:47.106Z,39.54
2023-02-11T09:08:15.987Z,39.43
2023-02-11T09:10:44.167Z,38.77
2023-02-11T09:13:12.950Z,37.77
2023-02-11T09:15:41.016Z,36.77
2023-02-11T09:18:08.935Z,36.40
2023-02-11T09:20:36.856Z,36.02
2023-02-11T09:23:04.822Z,35.65
2023-02-11T09:25:32.787Z,35.17
2023-02-11T09:28:00.991Z,34.81
2023-02-11T09:30:29.006Z,34.76
2023-02-11T09:32:57.119Z,34.80
2023-02-11T09:35:25.087Z,35.14
2023-02-11T09:37:53.198Z,35.82
2023-02-11T09:40:21.642Z,36.66
2023-02-11T09:42:49.556Z,35.34
2023-02-11T09:45:19.744Z,34.17
2023-02-11T09:47:58.242Z,32.76
2023-02-11T09:50:31.131Z,32.69
2023-02-11T09:53:03.675Z,32.00
2023-02-11T09:55:38.021Z,31.77
2023-02-11T09:58:11.921Z,31.92
2023-02-11T10:00:42.657Z,32.30
2023-02-11T10:03:13.252Z,31.98
2023-02-11T10:06:04.407Z,31.65
2023-02-11T10:08:52.489Z,31.22
2023-02-11T10:11:31.714Z,30.84
2023-02-11T10:14:21.764Z,30.39
2023-02-11T10:17:09.187Z,29.98
2023-02-11T10:19:43.405Z,29.24
2023-02-11T10:22:15.736Z,28.90
2023-02-11T10:24:48.764Z,28.71
2023-02-11T10:27:19.636Z,28.49
2023-02-11T10:29:53.653Z,28.88
2023-02-11T10:32:31.730Z,29.42
2023-02-11T10:35:02.059Z,29.19
2023-02-11T10:37:30.633Z,28.98
2023-02-11T10:39:58.710Z,29.04
2023-02-11T10:42:27.387Z,29.39
2023-02-11T10:44:57.821Z,29.88
2023-02-11T10:47:28.392Z,29.27
2023-02-11T10:50:03.332Z,31.78
2023-02-11T10:52:31.366Z,31.38
2023-02-11T10:55:18.057Z,34.99
2023-02-11T10:58:00.372Z,30.99
2023-02-11T11:00:34.248Z,29.82
2023-02-11T11:03:03.773Z,29.53
2023-02-11T11:05:33.483Z,28.47
2023-02-11T11:08:09.079Z,28.37
2023-02-11T11:10:44.546Z,27.34
2023-02-11T11:13:31.184Z,27.86
2023-02-11T11:16:11.451Z,28.00
2023-02-11T11:18:40.535Z,28.16
2023-02-11T11:21:13.938Z,26.76
2023-02-11T11:23:47.603Z,25.84
2023-02-11T11:26:16.628Z,26.33
2023-02-11T11:28:56.478Z,26.05
2023-02-11T11:31:27.324Z,25.47
2023-02-11T11:33:57.141Z,24.80
2023-02-11T11:36:32.418Z,24.57
2023-02-11T11:39:02.488Z,24.16
2023-02-11T11:41:34.439Z,24.65
2023-02-11T11:44:02.413Z,24.88
2023-02-11T11:46:30.756Z,24.92
2023-02-11T11:49:13.911Z,24.55
2023-02-11T11:51:44.350Z,24.97
2023-02-11T11:54:13.945Z,24.84
2023-02-11T11:56:56.658Z,24.67
2023-02-11T11:59:24.838Z,25.18
2023-02-11T12:02:06.892Z,25.13
2023-02-11T12:04:56.917Z,25.34
2023-02-11T12:07:25.955Z,25.18
2023-02-11T12:10:08.353Z,24.90
2023-02-11T12:12:44.185Z,25.23
2023-02-11T12:15:34.586Z,25.16
2023-02-11T12:18:11.650Z,25.12
2023-02-11T12:21:04.508Z,24.80
2023-02-11T12:23:35.444Z,24.38
2023-02-11T12:26:12.226Z,23.69
2023-02-11T12:28:45.007Z,23.53
2023-02-11T12:31:28.307Z,23.74
2023-02-11T12:34:04.222Z,24.07
2023-02-11T12:36:42.399Z,23.74
2023-02-11T12:39:13.550Z,23.72
2023-02-11T12:42:26.155Z,23.52
2023-02-11T12:44:59.973Z,23.58
2023-02-11T12:47:46.579Z,23.81
2023-02-11T12:50:17.410Z,23.77
2023-02-11T12:53:16.812Z,23.74
2023-02-11T12:55:47.056Z,24.25
2023-02-11T12:58:17.967Z,25.21
2023-02-11T13:00:48.845Z,25.79
2023-02-11T13:03:24.157Z,26.11
2023-02-11T13:05:54.878Z,26.62
2023-02-11T13:08:44.156Z,27.13
2023-02-11T13:11:15.180Z,26.16
2023-02-11T13:13:47.477Z,25.97
2023-02-11T13:16:35.565Z,25.83
2023-02-11T13:19:27.753Z,25.88
2023-02-11T13:22:07.996Z,26.97
2023-02-11T13:24:53.586Z,27.93
2023-02-11T13:27:24.532Z,28.28
2023-02-11T13:30:12.977Z,27.50
2023-02-11T13:32:56.316Z,27.58
2023-02-11T13:35:34.962Z,27.74
2023-02-11T13:38:04.936Z,27.94
2023-02-11T13:40:37.212Z,27.94
2023-02-11T13:43:06.936Z,27.99
2023-02-11T13:45:34.911Z,27.73
2023-02-11T13:48:04.933Z,27.58
2023-02-11T13:50:37.481Z,27.49
2023-02-11T13:53:08.173Z,27.87
2023-02-11T13:55:36.483Z,28.53
2023-02-11T13:58:13.672Z,29.63
2023-02-11T14:00:47.485Z,30.28
2023-02-11T14:04:00.501Z,31.12
2023-02-11T14:06:47.373Z,31.85
2023-02-11T14:09:17.380Z,32.18
2023-02-11T14:11:45.401Z,32.90
2023-02-11T14:14:16.238Z,33.64
2023-02-11T14:17:02.219Z,34.59
2023-02-11T14:19:34.215Z,35.58
2023-02-11T14:22:06.867Z,36.30
2023-02-11T14:24:37.510Z,36.97
2023-02-11T14:27:07.728Z,37.73
2023-02-11T14:29:38.758Z,38.88
2023-02-11T14:32:26.952Z,39.44
2023-02-11T14:35:01.032Z,39.52
2023-02-11T14:37:50.362Z,39.56
2023-02-11T14:40:23.789Z,40.32
2023-02-11T14:42:54.145Z,41.15
2023-02-11T14:45:27.532Z,41.48
2023-02-11T14:48:00.399Z,41.32
2023-02-11T14:50:33.796Z,41.37
2023-02-11T14:53:03.207Z,41.60
2023-02-11T14:55:33.730Z,42.20
2023-02-11T14:58:05.387Z,42.57
2023-02-11T15:00:33.756Z,42.96
2023-02-11T15:03:01.694Z,43.56
2023-02-11T15:05:30.119Z,43.82
2023-02-11T15:07:59.422Z,43.88
2023-02-11T15:10:42.535Z,44.38
2023-02-11T15:13:16.683Z,44.56
2023-02-11T15:15:46.628Z,44.83
2023-02-11T15:18:21.383Z,44.98
2023-02-11T15:20:50.474Z,45.17
2023-02-11T15:23:23.590Z,45.62
2023-02-11T15:25:56.075Z,46.34
2023-02-11T15:28:32.362Z,46.45
2023-02-11T15:31:05.593Z,46.22
2023-02-11T15:33:33.789Z,46.10
2023-02-11T15:36:05.240Z,46.47
2023-02-11T15:38:33.363Z,46.72
2023-02-11T15:41:02.213Z,46.94
2023-02-11T15:43:46.660Z,47.10
2023-02-11T15:46:20.025Z,46.93
2023-02-11T15:48:49.974Z,47.14
2023-02-11T15:51:21.879Z,47.50
2023-02-11T15:53:53.377Z,48.03
2023-02-11T15:56:25.229Z,48.79
2023-02-11T15:58:55.663Z,49.28
2023-02-11T16:01:34.279Z,48.35
2023-02-11T16:04:03.614Z,48.22
2023-02-11T16:06:42.412Z,48.28
2023-02-11T16:09:11.196Z,48.18
2023-02-11T16:11:48.074Z,48.03
2023-02-11T16:14:22.790Z,47.94
2023-02-11T16:16:52.512Z,47.58
2023-02-11T16:19:24.948Z,47.44
2023-02-11T16:21:54.903Z,47.76
2023-02-11T16:24:28.298Z,47.47
2023-02-11T16:27:03.164Z,46.91
2023-02-11T16:29:33.038Z,47.00
2023-02-11T16:32:16.256Z,46.73
2023-02-11T16:34:44.747Z,46.70
2023-02-11T16:37:12.632Z,47.26
2023-02-11T16:39:40.688Z,46.25
2023-02-11T16:42:09.981Z,45.87
2023-02-11T16:44:38.156Z,45.35
2023-02-11T16:47:07.966Z,45.62
2023-02-11T16:49:37.273Z,45.18
2023-02-11T16:52:12.820Z,44.80
2023-02-11T16:54:40.741Z,44.36
2023-02-11T16:57:29.841Z,44.42
2023-02-11T16:59:59.386Z,45.74
2023-02-11T17:02:30.691Z,45.90
2023-02-11T17:04:59.910Z,46.54
2023-02-11T17:07:27.986Z,45.85
2023-02-11T17:09:56.666Z,45.92
2023-02-11T17:12:25.632Z,45.57
2023-02-11T17:14:54.044Z,45.29
2023-02-11T17:17:24.966Z,45.32
2023-02-11T17:19:52.928Z,45.85
2023-02-11T17:22:20.905Z,46.02
2023-02-11T17:24:48.879Z,45.95
2023-02-11T17:27:17.457Z,45.91
2023-02-11T17:29:45.317Z,46.30
2023-02-11T17:32:13.343Z,47.50
2023-02-11T17:34:41.318Z,48.07
2023-02-11T17:37:09.450Z,48.72
2023-02-11T17:39:38.242Z,48.41
2023-02-11T17:42:06.809Z,48.56
2023-02-11T17:44:34.771Z,48.62
2023-02-11T17:47:03.154Z,48.71
2023-02-11T17:49:31.016Z,48.39
2023-02-11T17:51:58.833Z,47.06
2023-02-11T17:54:26.747Z,46.30
2023-02-11T17:56:57.803Z,47.37
2023-02-11T17:59:26.679Z,48.42
2023-02-11T18:01:54.652Z,48.80
2023-02-11T18:04:22.696Z,49.18
2023-02-11T18:06:53.602Z,49.75
2023-02-11T18:09:21.746Z,49.88
2023-02-11T18:11:52.666Z,50.55
2023-02-11T18:14:21.257Z,50.72
2023-02-11T18:16:50.457Z,50.70
2023-02-11T18:19:19.048Z,50.60
2023-02-11T18:21:49.051Z,50.39
2023-02-11T18:24:17.948Z,50.22
2023-02-11T18:26:45.933Z,50.12
2023-02-11T18:29:13.884Z,50.27
2023-02-11T18:31:42.003Z,50.10
2023-02-11T18:34:11.357Z,49.92
2023-02-11T18:36:39.636Z,49.44
2023-02-11T18:39:07.628Z,49.50
2023-02-11T18:41:35.582Z,49.52
2023-02-11T18:44:05.127Z,49.49
2023-02-11T18:46:33.673Z,50.28
2023-02-11T18:49:01.637Z,50.51
2023-02-11T18:51:32.484Z,50.98
2023-02-11T18:54:01.403Z,52.07
2023-02-11T18:56:29.377Z,52.69
2023-02-11T18:58:58.043Z,52.77
2023-02-11T19:01:27.535Z,52.30
2023-02-11T19:03:57.459Z,52.33
2023-02-11T19:06:27.566Z,52.53
2023-02-11T19:08:59.320Z,53.08
2023-02-11T19:11:47.102Z,52.84
2023-02-11T19:14:16.037Z,52.47
2023-02-11T19:16:46.138Z,53.23
2023-02-11T19:19:14.427Z,53.14
2023-02-11T19:21:43.838Z,52.64
2023-02-11T19:24:12.779Z,52.68
2023-02-11T19:26:40.581Z,52.82
2023-02-11T19:29:08.876Z,52.80
2023-02-11T19:31:36.992Z,52.50
2023-02-11T19:34:05.536Z,52.48
2023-02-11T19:36:33.904Z,53.03
2023-02-11T19:39:02.486Z,53.35
2023-02-11T19:41:30.778Z,53.18
2023-02-11T19:43:58.756Z,52.94
2023-02-11T19:46:27.981Z,52.95
2023-02-11T19:48:56.310Z,53.21
2023-02-11T19:51:24.279Z,53.45
2023-02-11T19:53:52.458Z,53.71
2023-02-11T19:56:21.036Z,53.97
2023-02-11T19:58:49.052Z,54.42
2023-02-11T20:01:19.701Z,54.44
2023-02-11T20:03:51.906Z,54.16
2023-02-11T20:06:23.497Z,53.65
2023-02-11T20:09:02.089Z,54.32
2023-02-11T20:11:31.085Z,54.51
2023-02-11T20:13:59.360Z,54.42
2023-02-11T20:16:44.568Z,54.25
2023-02-11T20:19:19.506Z,54.30
2023-02-11T20:21:48.754Z,54.36
2023-02-11T20:24:17.540Z,54.87
2023-02-11T20:26:48.537Z,54.73
2023-02-11T20:29:17.671Z,54.35
2023-02-11T20:31:46.009Z,54.59
2023-02-11T20:34:15.283Z,54.36
2023-02-11T20:36:43.843Z,55.23
2023-02-11T20:39:11.876Z,55.84
2023-02-11T20:41:40.078Z,55.64
2023-02-11T20:44:10.265Z,56.85
2023-02-11T20:46:40.411Z,55.59
2023-02-11T20:49:11.381Z,55.46
2023-02-11T20:51:39.746Z,57.03
2023-02-11T20:54:07.815Z,57.46
2023-02-11T20:56:37.061Z,57.87
2023-02-11T20:59:06.082Z,58.43
2023-02-11T21:01:34.158Z,58.20
2023-02-11T21:04:04.297Z,57.31
2023-02-11T21:06:36.779Z,56.41
2023-02-11T21:09:05.926Z,55.85
2023-02-11T21:11:34.247Z,55.57
2023-02-11T21:14:02.524Z,57.56
2023-02-11T21:16:31.554Z,58.18
2023-02-11T21:19:00.760Z,58.33
2023-02-11T21:21:28.987Z,56.79
2023-02-11T21:23:58.539Z,57.89
2023-02-11T21:26:26.466Z,58.04
2023-02-11T21:28:55.365Z,58.09
2023-02-11T21:31:24.999Z,57.86
2023-02-11T21:33:55.299Z,57.41
2023-02-11T21:36:23.892Z,58.15
2023-02-11T21:38:52.156Z,58.58
2023-02-11T21:41:22.616Z,58.53
2023-02-11T21:43:51.168Z,58.43
2023-02-11T21:46:19.892Z,58.60
2023-02-11T21:48:48.371Z,58.32
2023-02-11T21:51:17.965Z,58.30
2023-02-11T21:53:46.320Z,58.09
2023-02-11T21:56:15.732Z,58.10
2023-02-11T21:58:44.616Z,58.51
2023-02-11T22:01:13.074Z,57.71
2023-02-11T22:03:41.994Z,57.60
2023-02-11T22:06:11.589Z,57.69
2023-02-11T22:08:39.979Z,55.29
2023-02-11T22:11:09.882Z,52.81
2023-02-11T22:13:37.966Z,54.21
2023-02-11T22:16:07.565Z,55.50
2023-02-11T22:18:35.607Z,55.45
2023-02-11T22:21:05.246Z,52.07
2023-02-11T22:23:33.433Z,53.32
2023-02-11T22:26:05.998Z,55.31
2023-02-11T22:28:35.583Z,57.41
2023-02-11T22:31:03.592Z,59.29
2023-02-11T22:33:31.541Z,59.75
2023-02-11T22:36:00.424Z,58.92
2023-02-11T22:38:31.774Z,60.00
2023-02-11T22:41:00.669Z,60.53
2023-02-11T22:43:28.737Z,60.64
2023-02-11T22:46:00.127Z,60.57
2023-02-11T22:48:28.155Z,60.90
2023-02-11T22:50:56.334Z,60.74
2023-02-11T22:53:25.733Z,60.67
2023-02-11T22:55:54.172Z,60.24
2023-02-11T22:58:22.390Z,59.78
2023-02-11T23:00:50.356Z,60.06
2023-02-11T23:03:18.325Z,60.12
2023-02-11T23:05:46.497Z,60.07
2023-02-11T23:08:14.362Z,59.64
2023-02-11T23:10:42.325Z,59.44
2023-02-11T23:13:12.972Z,58.70
2023-02-11T23:15:42.057Z,59.45
2023-02-11T23:18:10.853Z,59.80
2023-02-11T23:20:40.259Z,59.68
2023-02-11T23:23:08.423Z,59.69
2023-02-11T23:25:41.722Z,58.95
2023-02-11T23:28:10.196Z,59.36
2023-02-11T23:30:38.281Z,59.47
2023-02-11T23:33:06.249Z,59.48
2023-02-11T23:35:34.215Z,59.66
2023-02-11T23:38:02.214Z,60.17
2023-02-11T23:40:30.257Z,60.77
2023-02-11T23:42:58.225Z,61.29
2023-02-11T23:45:26.302Z,61.61
2023-02-11T23:47:54.282Z,62.07
2023-02-11T23:50:22.341Z,62.28
2023-02-11T23:52:50.237Z,62.66
2023-02-11T23:55:18.173Z,62.97
2023-02-11T23:57:46.068Z,63.61
